createdAt,value
2023-03-07T00:00:21.449Z,8.45
2023-03-07T00:02:53.385Z,11.05
2023-03-07T00:05:19.807Z,5.85
2023-03-07T00:07:50.815Z,8.90
2023-03-07T00:10:17.596Z,9.10
2023-03-07T00:12:43.910Z,13.40
2023-03-07T00:15:11.060Z,8.20
2023-03-07T00:17:38.551Z,9.98
2023-03-07T00:20:06.846Z,8.60
2023-03-07T00:22:35.437Z,8.40
2023-03-07T00:25:02.218Z,8.32
2023-03-07T00:27:32.364Z,9.73
2023-03-07T00:29:59.099Z,9.65
2023-03-07T00:32:27.823Z,9.00
2023-03-07T00:34:55.442Z,8.60
2023-03-07T00:37:24.532Z,7.85
2023-03-07T00:39:53.601Z,8.18
2023-03-07T00:42:19.928Z,11.95
2023-03-07T00:44:46.288Z,7.50
2023-03-07T00:47:17.496Z,8.60
2023-03-07T00:49:46.409Z,7.75
2023-03-07T00:52:15.263Z,7.72
2023-03-07T00:54:43.978Z,11.32
2023-03-07T00:57:10.311Z,15.10
2023-03-07T00:59:37.596Z,10.05
2023-03-07T01:02:06.195Z,8.65
2023-03-07T01:04:32.600Z,11.02
2023-03-07T01:06:59.146Z,8.38
2023-03-07T01:09:27.705Z,9.38
2023-03-07T01:11:54.016Z,6.45
2023-03-07T01:14:20.390Z,8.38
2023-03-07T01:16:49.321Z,5.63
2023-03-07T01:19:15.928Z,8.48
2023-03-07T01:21:43.728Z,10.07
2023-03-07T01:24:14.383Z,9.60
2023-03-07T01:26:41.013Z,8.93
2023-03-07T01:29:08.261Z,8.05
2023-03-07T01:31:37.577Z,7.60
2023-03-07T01:34:22.901Z,8.02
2023-03-07T01:36:52.488Z,11.48
2023-03-07T01:39:19.146Z,7.18
2023-03-07T01:41:45.934Z,9.48
2023-03-07T01:44:20.284Z,10.10
2023-03-07T01:46:53.620Z,7.85
2023-03-07T01:49:45.609Z,7.85
2023-03-07T01:52:35.561Z,7.93
2023-03-07T01:55:10.165Z,8.27
2023-03-07T01:57:40.522Z,7.85
2023-03-07T02:00:11.667Z,7.50
2023-03-07T02:02:40.869Z,6.45
2023-03-07T02:05:14.184Z,5.80
2023-03-07T02:07:46.327Z,7.45
2023-03-07T02:10:14.663Z,6.38
2023-03-07T02:12:44.654Z,5.78
2023-03-07T02:15:14.167Z,7.68
2023-03-07T02:17:42.273Z,7.28
2023-03-07T02:20:45.503Z,11.77
2023-03-07T02:23:28.449Z,7.60
2023-03-07T02:26:27.261Z,9.27
2023-03-07T02:28:58.726Z,6.20
2023-03-07T02:31:25.742Z,8.18
2023-03-07T02:33:52.112Z,9.93
2023-03-07T02:36:35.571Z,10.13
2023-03-07T02:39:05.184Z,7.05
2023-03-07T02:41:38.017Z,7.22
2023-03-07T02:44:07.199Z,8.10
2023-03-07T02:46:33.770Z,6.15
2023-03-07T02:49:00.134Z,7.28
2023-03-07T02:51:26.659Z,4.60
2023-03-07T02:53:53.025Z,5.10
2023-03-07T02:56:19.354Z,5.55
2023-03-07T02:58:48.132Z,11.07
2023-03-07T03:01:18.962Z,7.53
2023-03-07T03:06:19.102Z,7.00
2023-03-07T03:08:47.749Z,8.32
2023-03-07T03:11:14.189Z,5.35
2023-03-07T03:13:43.132Z,5.13
2023-03-07T03:16:09.499Z,6.07
2023-03-07T03:18:35.857Z,8.02
2023-03-07T03:21:08.114Z,5.70
2023-03-07T03:23:34.464Z,8.63
2023-03-07T03:26:06.986Z,9.85
2023-03-07T03:28:39.081Z,6.35
2023-03-07T03:31:10.727Z,4.43
2023-03-07T03:33:37.450Z,7.22
2023-03-07T03:36:09.977Z,4.68
2023-03-07T03:38:36.983Z,7.03
2023-03-07T03:41:08.580Z,4.30
2023-03-07T03:43:35.278Z,5.60
2023-03-07T03:46:01.879Z,7.90
2023-03-07T03:48:30.764Z,8.77
2023-03-07T03:51:05.622Z,5.32
2023-03-07T03:53:33.439Z,7.65
2023-03-07T03:56:08.567Z,4.55
2023-03-07T03:58:35.794Z,7.50
2023-03-07T04:01:06.012Z,9.60
2023-03-07T04:03:35.154Z,7.10
2023-03-07T04:06:03.230Z,6.82
2023-03-07T04:08:29.616Z,6.00
2023-03-07T04:10:56.023Z,7.05
2023-03-07T04:13:22.637Z,7.07
2023-03-07T04:15:52.029Z,7.25
2023-03-07T04:18:18.965Z,4.55
2023-03-07T04:20:46.889Z,9.68
2023-03-07T04:23:13.437Z,8.95
2023-03-07T04:25:46.481Z,4.82
2023-03-07T04:28:12.883Z,10.25
2023-03-07T04:30:46.755Z,6.47
2023-03-07T04:33:15.491Z,8.40
2023-03-07T04:35:42.455Z,6.88
2023-03-07T04:38:09.062Z,7.75
2023-03-07T04:40:35.533Z,7.03
2023-03-07T04:43:03.128Z,5.03
2023-03-07T04:45:34.275Z,2.92
2023-03-07T04:48:08.421Z,8.30
2023-03-07T04:50:34.836Z,5.03
2023-03-07T04:53:01.298Z,5.25
2023-03-07T04:55:27.658Z,2.60
2023-03-07T04:57:57.685Z,2.20
2023-03-07T05:00:26.629Z,4.50
2023-03-07T05:02:57.229Z,3.53
2023-03-07T05:05:23.616Z,3.65
2023-03-07T05:07:52.403Z,4.38
2023-03-07T05:10:18.942Z,8.23
2023-03-07T05:12:45.551Z,3.08
2023-03-07T05:15:14.784Z,8.13
2023-03-07T05:17:41.185Z,3.28
2023-03-07T05:20:12.482Z,7.95
2023-03-07T05:22:39.141Z,5.47
2023-03-07T05:25:08.416Z,5.10
2023-03-07T05:27:34.764Z,5.70
2023-03-07T05:30:08.755Z,5.72
2023-03-07T05:32:35.174Z,4.03
2023-03-07T05:35:04.595Z,5.13
2023-03-07T05:37:31.344Z,2.58
2023-03-07T05:39:58.897Z,2.72
2023-03-07T05:42:25.335Z,4.15
2023-03-07T05:44:51.751Z,3.75
2023-03-07T05:47:21.213Z,4.28
2023-03-07T05:49:47.618Z,3.60
2023-03-07T05:52:18.859Z,1.85
2023-03-07T05:54:46.164Z,1.85
2023-03-07T05:57:12.487Z,2.17
2023-03-07T05:59:40.289Z,1.88
2023-03-07T06:02:09.271Z,3.53
2023-03-07T06:04:35.645Z,1.95
2023-03-07T06:07:07.579Z,1.63
2023-03-07T06:09:34.049Z,1.38
2023-03-07T06:12:02.202Z,2.35
2023-03-07T06:14:30.244Z,0.98
2023-03-07T06:16:56.612Z,2.65
2023-03-07T06:19:23.301Z,2.75
2023-03-07T06:21:49.793Z,2.47
2023-03-07T06:24:22.572Z,1.83
2023-03-07T06:26:58.208Z,0.90
2023-03-07T06:29:27.521Z,2.75
2023-03-07T06:31:56.437Z,1.67
2023-03-07T06:34:22.868Z,2.90
2023-03-07T06:36:54.916Z,4.10
2023-03-07T06:39:23.833Z,1.35
2023-03-07T06:41:50.914Z,1.58
2023-03-07T06:44:17.732Z,7.60
2023-03-07T06:46:47.008Z,1.88
2023-03-07T06:49:13.528Z,4.15
2023-03-07T06:51:39.850Z,1.42
2023-03-07T06:54:06.570Z,1.90
2023-03-07T06:56:34.627Z,1.65
2023-03-07T06:59:01.708Z,2.38
2023-03-07T07:01:28.142Z,2.45
2023-03-07T07:03:54.461Z,3.00
2023-03-07T07:06:20.935Z,4.30
2023-03-07T07:08:51.807Z,2.47
2023-03-07T07:13:53.737Z,2.08
2023-03-07T07:16:20.649Z,4.57
2023-03-07T07:18:49.445Z,2.75
2023-03-07T07:21:15.791Z,3.30
2023-03-07T07:23:42.791Z,4.28
2023-03-07T07:26:11.618Z,2.22
2023-03-07T07:28:42.961Z,2.50
2023-03-07T07:31:09.503Z,5.32
2023-03-07T07:33:35.872Z,3.08
2023-03-07T07:36:02.312Z,4.35
2023-03-07T07:38:28.769Z,5.28
2023-03-07T07:40:55.109Z,3.45
2023-03-07T07:43:21.737Z,4.53
2023-03-07T07:45:50.136Z,5.07
2023-03-07T07:48:16.795Z,3.90
2023-03-07T07:50:46.387Z,3.75
2023-03-07T07:53:13.657Z,2.60
2023-03-07T07:55:40.116Z,4.53
2023-03-07T07:58:06.613Z,3.03
2023-03-07T08:00:36.784Z,3.25
2023-03-07T08:03:04.785Z,4.10
2023-03-07T08:05:31.151Z,3.13
2023-03-07T08:07:57.501Z,2.67
2023-03-07T08:10:23.890Z,4.20
2023-03-07T08:12:52.575Z,2.85
2023-03-07T08:15:20.459Z,4.75
2023-03-07T08:17:50.139Z,4.63
2023-03-07T08:20:18.991Z,3.95
2023-03-07T08:22:48.748Z,3.92
2023-03-07T08:25:22.563Z,3.92
2023-03-07T08:27:49.916Z,3.80
2023-03-07T08:30:16.727Z,5.55
2023-03-07T08:32:43.121Z,4.07
2023-03-07T08:35:09.871Z,3.60
2023-03-07T08:37:36.234Z,4.13
2023-03-07T08:40:03.033Z,6.72
2023-03-07T08:42:30.199Z,5.00
2023-03-07T08:44:59.437Z,5.32
2023-03-07T08:47:52.042Z,5.00
2023-03-07T08:50:41.527Z,6.18
2023-03-07T08:53:07.813Z,4.60
2023-03-07T08:55:37.218Z,4.95
2023-03-07T08:58:03.552Z,5.43
2023-03-07T09:00:29.914Z,8.02
2023-03-07T09:02:57.425Z,7.75
2023-03-07T09:05:24.925Z,5.47
2023-03-07T09:07:51.265Z,3.92
2023-03-07T09:10:17.856Z,5.40
2023-03-07T09:12:48.512Z,6.07
2023-03-07T09:15:14.841Z,3.67
2023-03-07T09:17:46.689Z,4.78
2023-03-07T09:20:13.318Z,4.68
2023-03-07T09:22:41.697Z,5.80
2023-03-07T09:25:08.642Z,7.30
2023-03-07T09:27:35.245Z,6.13
2023-03-07T09:30:02.063Z,4.15
2023-03-07T09:32:28.439Z,3.65
2023-03-07T09:34:54.868Z,3.78
2023-03-07T09:37:21.197Z,4.00
2023-03-07T09:39:50.904Z,4.47
2023-03-07T09:42:36.489Z,4.53
2023-03-07T09:45:20.806Z,3.88
2023-03-07T09:48:02.282Z,3.63
2023-03-07T09:50:38.352Z,2.58
2023-03-07T09:53:22.910Z,3.88
2023-03-07T09:55:50.680Z,3.38
2023-03-07T09:58:22.905Z,2.88
2023-03-07T10:00:55.673Z,3.97
2023-03-07T10:03:43.228Z,2.78
2023-03-07T10:06:26.511Z,4.57
2023-03-07T10:08:55.294Z,2.38
2023-03-07T10:11:40.636Z,5.28
2023-03-07T10:14:40.825Z,3.60
2023-03-07T10:17:44.539Z,3.95
2023-03-07T10:20:53.491Z,3.70
2023-03-07T10:23:41.625Z,2.78
2023-03-07T10:26:42.031Z,2.97
2023-03-07T10:29:33.011Z,2.35
2023-03-07T10:32:27.227Z,3.65
2023-03-07T10:35:11.857Z,3.28
2023-03-07T10:38:10.332Z,2.88
2023-03-07T10:41:00.982Z,3.13
2023-03-07T10:43:46.219Z,4.47
2023-03-07T10:46:32.205Z,4.55
2023-03-07T10:49:21.988Z,3.95
2023-03-07T10:52:20.119Z,4.38
2023-03-07T10:55:30.856Z,2.42
2023-03-07T10:58:22.500Z,2.20
2023-03-07T11:01:07.502Z,4.40
2023-03-07T11:03:59.710Z,3.00
2023-03-07T11:07:00.752Z,3.78
2023-03-07T11:12:45.448Z,2.60
2023-03-07T11:15:32.665Z,2.60
2023-03-07T11:18:53.251Z,2.40
2023-03-07T11:21:38.293Z,2.15
2023-03-07T11:24:41.736Z,4.07
2023-03-07T11:27:35.952Z,2.50
2023-03-07T11:30:41.790Z,2.83
2023-03-07T11:33:40.548Z,3.42
2023-03-07T11:36:36.520Z,1.25
2023-03-07T11:39:46.352Z,2.70
2023-03-07T11:42:37.696Z,1.50
2023-03-07T11:45:53.434Z,2.83
2023-03-07T11:48:50.609Z,4.70
2023-03-07T11:52:10.338Z,4.78
2023-03-07T11:55:21.571Z,1.35
2023-03-07T11:58:33.849Z,2.95
2023-03-07T12:01:21.477Z,2.55
2023-03-07T12:04:05.981Z,3.17
2023-03-07T12:07:04.307Z,1.85
2023-03-07T12:09:53.952Z,1.02
2023-03-07T12:12:41.242Z,1.65
2023-03-07T12:15:26.499Z,1.92
2023-03-07T12:18:25.158Z,3.08
2023-03-07T12:21:00.450Z,1.63
2023-03-07T12:23:37.417Z,2.38
2023-03-07T12:26:11.759Z,3.08
2023-03-07T12:28:45.264Z,4.45
2023-03-07T12:31:39.102Z,0.65
2023-03-07T12:34:07.412Z,0.50
2023-03-07T12:36:51.224Z,1.00
2023-03-07T12:39:47.917Z,1.08
2023-03-07T12:43:08.964Z,0.55
2023-03-07T12:45:48.356Z,2.10
2023-03-07T12:48:42.938Z,1.55
2023-03-07T12:54:01.063Z,1.20
2023-03-07T12:59:13.632Z,0.90
2023-03-07T13:02:11.843Z,2.25
2023-03-07T13:04:46.143Z,1.55
2023-03-07T13:07:26.313Z,1.00
2023-03-07T13:09:54.922Z,2.15
2023-03-07T13:12:25.197Z,2.58
2023-03-07T13:14:58.755Z,0.60
2023-03-07T13:17:43.274Z,1.33
2023-03-07T13:20:17.014Z,1.85
2023-03-07T13:22:43.510Z,0.70
2023-03-07T13:25:27.174Z,2.47
2023-03-07T13:27:57.584Z,0.90
2023-03-07T13:30:29.021Z,2.13
2023-03-07T13:33:04.272Z,1.42
2023-03-07T13:35:33.453Z,4.75
2023-03-07T13:38:28.264Z,3.45
2023-03-07T13:41:06.330Z,1.35
2023-03-07T13:43:58.587Z,1.55
2023-03-07T13:46:24.903Z,1.05
2023-03-07T13:48:56.618Z,1.02
2023-03-07T13:51:23.104Z,2.50
2023-03-07T13:53:53.717Z,6.15
2023-03-07T13:56:24.709Z,1.52
2023-03-07T13:59:09.311Z,4.85
2023-03-07T14:01:38.950Z,1.85
2023-03-07T14:04:39.429Z,1.35
2023-03-07T14:07:23.855Z,2.90
2023-03-07T14:10:24.838Z,1.80
2023-03-07T14:13:09.560Z,1.30
2023-03-07T14:15:56.213Z,1.95
2023-03-07T14:18:48.184Z,1.40
2023-03-07T14:21:49.399Z,1.58
2023-03-07T14:24:25.011Z,2.75
2023-03-07T14:26:59.680Z,2.88
2023-03-07T14:29:28.978Z,1.40
2023-03-07T14:31:57.719Z,2.33
2023-03-07T14:34:24.101Z,2.42
2023-03-07T14:37:20.754Z,1.90
2023-03-07T14:40:03.758Z,2.25
2023-03-07T14:42:54.565Z,1.60
2023-03-07T14:45:44.410Z,1.02
2023-03-07T14:48:54.733Z,1.25
2023-03-07T14:51:25.663Z,6.88
2023-03-07T14:53:53.664Z,8.05
2023-03-07T14:56:28.644Z,6.63
2023-03-07T14:58:58.410Z,2.80
2023-03-07T15:01:30.626Z,2.40
2023-03-07T15:03:57.275Z,5.45
2023-03-07T15:06:27.518Z,2.88
2023-03-07T15:08:57.223Z,1.42
2023-03-07T15:11:37.064Z,3.80
2023-03-07T15:14:16.868Z,3.05
2023-03-07T15:16:45.028Z,3.90
2023-03-07T15:19:19.180Z,3.60
2023-03-07T15:21:53.050Z,2.95
2023-03-07T15:24:31.122Z,2.28
2023-03-07T15:27:00.365Z,3.05
2023-03-07T15:29:29.685Z,2.05
2023-03-07T15:32:04.842Z,2.65
2023-03-07T15:34:32.465Z,2.15
2023-03-07T15:37:27.894Z,1.25
2023-03-07T15:39:58.599Z,0.82
2023-03-07T15:42:28.446Z,3.90
2023-03-07T15:45:01.565Z,1.90
2023-03-07T15:47:31.522Z,4.15
2023-03-07T15:50:06.789Z,3.75
2023-03-07T15:52:39.630Z,4.28
2023-03-07T15:55:20.357Z,2.72
2023-03-07T15:57:59.745Z,2.50
2023-03-07T16:00:33.014Z,2.85
2023-03-07T16:03:24.279Z,2.22
2023-03-07T16:05:51.527Z,12.23
2023-03-07T16:08:18.306Z,20.95
2023-03-07T16:10:54.903Z,10.18
2023-03-07T16:13:28.371Z,16.33
2023-03-07T16:16:05.056Z,3.83
2023-03-07T16:18:33.860Z,4.85
2023-03-07T16:21:03.459Z,3.53
2023-03-07T16:23:30.100Z,2.50
2023-03-07T16:25:57.968Z,3.47
2023-03-07T16:28:25.654Z,4.68
2023-03-07T16:30:56.191Z,2.10
2023-03-07T16:33:22.546Z,1.70
2023-03-07T16:35:55.714Z,4.22
2023-03-07T16:38:24.384Z,2.20
2023-03-07T16:40:52.188Z,2.65
2023-03-07T16:43:38.185Z,2.65
2023-03-07T16:46:10.312Z,2.60
2023-03-07T16:48:36.760Z,4.05
2023-03-07T16:51:03.702Z,3.00
2023-03-07T16:53:32.538Z,6.05
2023-03-07T16:56:01.053Z,2.70
2023-03-07T16:58:44.096Z,5.20
2023-03-07T17:01:14.246Z,4.07
2023-03-07T17:03:41.367Z,2.35
2023-03-07T17:06:13.258Z,2.72
2023-03-07T17:08:39.805Z,5.32
2023-03-07T17:11:19.128Z,3.95
2023-03-07T17:13:49.375Z,4.55
2023-03-07T17:16:18.979Z,3.42
2023-03-07T17:18:45.717Z,3.50
2023-03-07T17:21:18.555Z,2.88
2023-03-07T17:23:48.366Z,5.65
2023-03-07T17:26:40.897Z,4.57
2023-03-07T17:29:35.617Z,3.80
2023-03-07T17:34:49.018Z,7.32
2023-03-07T17:37:15.716Z,4.20
2023-03-07T17:39:44.841Z,5.78
2023-03-07T17:42:11.861Z,2.67
2023-03-07T17:44:40.678Z,0.75
2023-03-07T17:47:07.198Z,3.72
2023-03-07T17:49:38.126Z,2.00
2023-03-07T17:54:42.894Z,0.43
2023-03-07T17:57:09.297Z,1.05
2023-03-07T17:59:37.398Z,2.67
2023-03-07T18:02:03.996Z,3.45
2023-03-07T18:04:33.316Z,1.60
2023-03-07T18:06:59.869Z,1.50
2023-03-07T18:09:27.561Z,0.88
2023-03-07T18:11:54.028Z,1.02
2023-03-07T18:14:20.416Z,2.38
2023-03-07T18:16:49.102Z,1.80
2023-03-07T18:19:26.187Z,1.10
2023-03-07T18:21:55.915Z,3.08
2023-03-07T18:24:26.924Z,4.65
2023-03-07T18:26:54.337Z,13.80
2023-03-07T18:29:21.818Z,106.40
2023-03-07T18:31:48.622Z,77.95
2023-03-07T18:34:16.697Z,82.43
2023-03-07T18:36:43.645Z,50.70
2023-03-07T18:39:10.326Z,53.10
2023-03-07T18:41:37.359Z,37.22
2023-03-07T18:44:03.957Z,12.18
2023-03-07T18:46:30.690Z,4.55
2023-03-07T18:49:00.576Z,4.13
2023-03-07T18:51:27.569Z,3.78
2023-03-07T18:53:59.806Z,8.40
2023-03-07T18:56:26.431Z,4.22
2023-03-07T18:58:54.239Z,3.22
2023-03-07T19:01:24.820Z,2.40
2023-03-07T19:03:52.910Z,5.82
2023-03-07T19:06:21.757Z,3.50
2023-03-07T19:08:49.818Z,3.38
2023-03-07T19:11:17.083Z,4.50
2023-03-07T19:13:43.771Z,2.70
2023-03-07T19:16:16.392Z,3.42
2023-03-07T19:18:43.431Z,4.85
2023-03-07T19:21:21.559Z,4.38
2023-03-07T19:23:49.629Z,5.93
2023-03-07T19:26:21.731Z,4.63
2023-03-07T19:28:53.370Z,3.53
2023-03-07T19:31:27.649Z,6.68
2023-03-07T19:33:55.504Z,5.70
2023-03-07T19:36:27.097Z,3.95
2023-03-07T19:38:55.096Z,3.92
2023-03-07T19:41:24.086Z,6.70
2023-03-07T19:43:50.736Z,6.10
2023-03-07T19:46:18.992Z,4.50
2023-03-07T19:48:45.401Z,6.72
2023-03-07T19:51:21.021Z,4.38
2023-03-07T19:53:47.798Z,9.43
2023-03-07T19:56:16.958Z,4.82
2023-03-07T19:58:43.758Z,2.78
2023-03-07T20:01:13.926Z,3.63
2023-03-07T20:03:41.903Z,3.78
2023-03-07T20:06:11.733Z,2.70
2023-03-07T20:08:38.055Z,3.97
2023-03-07T20:11:09.827Z,2.90
2023-03-07T20:13:36.513Z,2.15
2023-03-07T20:16:03.019Z,2.03
2023-03-07T20:18:34.259Z,2.40
2023-03-07T20:21:14.100Z,2.85
2023-03-07T20:23:43.807Z,3.42
2023-03-07T20:26:22.062Z,3.40
2023-03-07T20:28:55.690Z,3.90
2023-03-07T20:31:24.880Z,2.97
2023-03-07T20:33:51.863Z,2.47
2023-03-07T20:36:25.552Z,3.10
2023-03-07T20:38:55.934Z,2.50
2023-03-07T20:41:27.917Z,4.63
2023-03-07T20:44:01.422Z,14.75
2023-03-07T20:46:28.433Z,68.43
2023-03-07T20:48:56.047Z,55.85
2023-03-07T20:51:24.961Z,22.63
2023-03-07T20:53:52.564Z,25.55
2023-03-07T20:56:20.368Z,9.18
2023-03-07T20:58:47.321Z,10.80
2023-03-07T21:01:16.730Z,4.85
2023-03-07T21:03:43.369Z,3.85
2023-03-07T21:06:13.350Z,4.97
2023-03-07T21:08:42.272Z,4.75
2023-03-07T21:11:17.108Z,3.83
2023-03-07T21:13:46.073Z,4.38
2023-03-07T21:16:24.228Z,5.15
2023-03-07T21:18:51.314Z,6.90
2023-03-07T21:21:20.774Z,7.10
2023-03-07T21:23:48.287Z,10.52
2023-03-07T21:26:17.077Z,7.80
2023-03-07T21:28:44.635Z,9.40
2023-03-07T21:31:14.101Z,6.40
2023-03-07T21:33:42.434Z,8.05
2023-03-07T21:36:14.243Z,4.60
2023-03-07T21:38:41.207Z,5.13
2023-03-07T21:41:11.278Z,3.83
2023-03-07T21:43:38.287Z,5.13
2023-03-07T21:46:13.697Z,5.45
2023-03-07T21:48:41.157Z,3.40
2023-03-07T21:51:08.160Z,3.50
2023-03-07T21:53:36.384Z,5.45
2023-03-07T21:56:16.129Z,4.10
2023-03-07T21:58:47.976Z,4.18
2023-03-07T22:01:20.988Z,6.07
2023-03-07T22:03:48.150Z,4.05
2023-03-07T22:06:15.726Z,4.90
2023-03-07T22:08:42.568Z,7.15
2023-03-07T22:11:11.558Z,3.55
2023-03-07T22:13:40.429Z,6.53
2023-03-07T22:16:11.053Z,4.85
2023-03-07T22:18:37.565Z,4.85
2023-03-07T22:21:14.696Z,4.57
2023-03-07T22:23:41.349Z,5.22
2023-03-07T22:26:09.387Z,5.68
2023-03-07T22:28:36.897Z,4.28
2023-03-07T22:31:10.433Z,3.78
2023-03-07T22:33:37.028Z,2.92
2023-03-07T22:36:06.048Z,5.00
2023-03-07T22:38:34.028Z,4.95
2023-03-07T22:41:08.734Z,3.38
2023-03-07T22:43:36.326Z,3.55
2023-03-07T22:46:07.443Z,5.03
2023-03-07T22:48:38.803Z,2.53
2023-03-07T22:51:11.215Z,4.70
2023-03-07T22:53:47.990Z,3.03
2023-03-07T22:56:27.498Z,3.90
2023-03-07T22:58:54.534Z,4.97
2023-03-07T23:01:24.228Z,4.78
2023-03-07T23:03:55.480Z,2.95
2023-03-07T23:06:23.648Z,3.65
2023-03-07T23:08:52.950Z,4.25
2023-03-07T23:11:21.449Z,5.28
2023-03-07T23:13:47.891Z,3.47
2023-03-07T23:16:20.650Z,3.40
2023-03-07T23:18:50.621Z,3.42
2023-03-07T23:21:20.058Z,4.88
2023-03-07T23:23:46.814Z,3.85
2023-03-07T23:26:22.418Z,3.85
2023-03-07T23:28:50.518Z,3.08
2023-03-07T23:31:39.354Z,3.47
2023-03-07T23:36:34.233Z,3.20
2023-03-07T23:39:00.795Z,3.70
2023-03-07T23:41:27.469Z,4.88
2023-03-07T23:43:59.092Z,2.78
2023-03-07T23:46:32.662Z,3.17
2023-03-07T23:49:03.972Z,2.67
2023-03-07T23:51:33.236Z,3.42
2023-03-07T23:53:59.648Z,3.60
2023-03-07T23:56:26.184Z,3.63
2023-03-07T23:58:55.202Z,3.03
